sensor_id;sensor_type;location;lat;lon;timestamp;P1;durP1;ratioP1;P2;durP2;ratioP2
63370;SDS011;72561;48.336;14.472;2023-09-19T00:03:14;2.40;;;0.90;;
63370;SDS011;72561;48.336;14.472;2023-09-19T00:06:35;3.17;;;0.90;;
63370;SDS011;72561;48.336;14.472;2023-09-19T00:09:56;2.65;;;0.95;;
63370;SDS011;72561;48.336;14.472;2023-09-19T00:13:17;3.13;;;1.20;;
63370;SDS011;72561;48.336;14.472;2023-09-19T00:16:38;3.40;;;1.20;;
63370;SDS011;72561;48.336;14.472;2023-09-19T00:20:01;4.25;;;1.35;;
63370;SDS011;72561;48.336;14.472;2023-09-19T00:23:22;2.50;;;0.98;;
63370;SDS011;72561;48.336;14.472;2023-09-19T00:26:43;3.33;;;1.20;;
63370;SDS011;72561;48.336;14.472;2023-09-19T00:30:05;2.70;;;1.17;;
63370;SDS011;72561;48.336;14.472;2023-09-19T00:33:40;2.67;;;0.98;;
63370;SDS011;72561;48.336;14.472;2023-09-19T00:37:08;3.20;;;1.35;;
63370;SDS011;72561;48.336;14.472;2023-09-19T00:40:30;3.40;;;1.27;;
63370;SDS011;72561;48.336;14.472;2023-09-19T00:43:51;2.30;;;1.00;;
63370;SDS011;72561;48.336;14.472;2023-09-19T00:49:35;2.35;;;0.95;;
63370;SDS011;72561;48.336;14.472;2023-09-19T00:52:56;3.50;;;1.33;;
63370;SDS011;72561;48.336;14.472;2023-09-19T00:56:18;3.60;;;1.58;;
63370;SDS011;72561;48.336;14.472;2023-09-19T00:59:40;3.75;;;1.25;;
63370;SDS011;72561;48.336;14.472;2023-09-19T01:03:01;2.92;;;1.48;;
63370;SDS011;72561;48.336;14.472;2023-09-19T01:08:45;3.30;;;1.42;;
63370;SDS011;72561;48.336;14.472;2023-09-19T01:12:07;3.05;;;1.55;;
63370;SDS011;72561;48.336;14.472;2023-09-19T01:15:32;3.80;;;1.70;;
63370;SDS011;72561;48.336;14.472;2023-09-19T01:19:07;3.47;;;1.48;;
63370;SDS011;72561;48.336;14.472;2023-09-19T01:23:05;3.90;;;1.38;;
63370;SDS011;72561;48.336;14.472;2023-09-19T01:26:43;3.28;;;1.60;;
63370;SDS011;72561;48.336;14.472;2023-09-19T01:30:39;3.05;;;1.55;;
63370;SDS011;72561;48.336;14.472;2023-09-19T01:34:04;3.25;;;1.48;;
63370;SDS011;72561;48.336;14.472;2023-09-19T01:37:25;3.17;;;1.33;;
63370;SDS011;72561;48.336;14.472;2023-09-19T01:40:47;3.55;;;1.75;;
63370;SDS011;72561;48.336;14.472;2023-09-19T01:44:21;4.55;;;2.20;;
63370;SDS011;72561;48.336;14.472;2023-09-19T01:47:51;3.45;;;2.00;;
63370;SDS011;72561;48.336;14.472;2023-09-19T01:51:14;3.90;;;1.98;;
63370;SDS011;72561;48.336;14.472;2023-09-19T01:54:41;3.78;;;2.38;;
63370;SDS011;72561;48.336;14.472;2023-09-19T01:58:13;3.33;;;1.70;;
63370;SDS011;72561;48.336;14.472;2023-09-19T02:01:39;4.00;;;1.80;;
63370;SDS011;72561;48.336;14.472;2023-09-19T02:05:04;3.88;;;1.98;;
63370;SDS011;72561;48.336;14.472;2023-09-19T02:08:25;4.40;;;2.22;;
63370;SDS011;72561;48.336;14.472;2023-09-19T02:11:46;3.88;;;2.10;;
63370;SDS011;72561;48.336;14.472;2023-09-19T02:15:08;5.25;;;2.00;;
63370;SDS011;72561;48.336;14.472;2023-09-19T02:18:29;3.80;;;1.52;;
63370;SDS011;72561;48.336;14.472;2023-09-19T02:21:52;3.60;;;1.88;;
63370;SDS011;72561;48.336;14.472;2023-09-19T02:25:13;3.63;;;2.15;;
63370;SDS011;72561;48.336;14.472;2023-09-19T02:28:34;3.90;;;2.45;;
63370;SDS011;72561;48.336;14.472;2023-09-19T02:31:55;5.32;;;1.95;;
63370;SDS011;72561;48.336;14.472;2023-09-19T02:35:16;4.47;;;2.20;;
63370;SDS011;72561;48.336;14.472;2023-09-19T02:38:39;4.20;;;1.63;;
63370;SDS011;72561;48.336;14.472;2023-09-19T02:42:01;4.60;;;2.13;;
63370;SDS011;72561;48.336;14.472;2023-09-19T02:45:22;3.70;;;2.03;;
63370;SDS011;72561;48.336;14.472;2023-09-19T02:48:43;3.42;;;2.08;;
63370;SDS011;72561;48.336;14.472;2023-09-19T02:52:05;3.03;;;1.52;;
63370;SDS011;72561;48.336;14.472;2023-09-19T02:55:27;3.55;;;1.75;;
63370;SDS011;72561;48.336;14.472;2023-09-19T02:58:49;3.55;;;1.67;;
63370;SDS011;72561;48.336;14.472;2023-09-19T03:03:20;3.22;;;1.38;;
63370;SDS011;72561;48.336;14.472;2023-09-19T03:06:41;2.78;;;1.15;;
63370;SDS011;72561;48.336;14.472;2023-09-19T03:10:02;3.47;;;1.50;;
63370;SDS011;72561;48.336;14.472;2023-09-19T03:13:24;3.30;;;1.30;;
63370;SDS011;72561;48.336;14.472;2023-09-19T03:16:45;2.92;;;1.40;;
63370;SDS011;72561;48.336;14.472;2023-09-19T03:20:08;3.40;;;1.23;;
63370;SDS011;72561;48.336;14.472;2023-09-19T03:23:30;3.53;;;1.23;;
63370;SDS011;72561;48.336;14.472;2023-09-19T03:26:51;2.50;;;1.10;;
63370;SDS011;72561;48.336;14.472;2023-09-19T03:30:13;2.92;;;0.90;;
63370;SDS011;72561;48.336;14.472;2023-09-19T03:33:34;5.07;;;1.20;;
63370;SDS011;72561;48.336;14.472;2023-09-19T03:36:57;2.55;;;1.00;;
63370;SDS011;72561;48.336;14.472;2023-09-19T03:40:18;4.18;;;1.20;;
63370;SDS011;72561;48.336;14.472;2023-09-19T03:43:39;2.35;;;1.02;;
63370;SDS011;72561;48.336;14.472;2023-09-19T03:47:00;3.28;;;1.00;;
63370;SDS011;72561;48.336;14.472;2023-09-19T03:50:21;2.90;;;1.20;;
63370;SDS011;72561;48.336;14.472;2023-09-19T03:53:44;3.60;;;1.30;;
63370;SDS011;72561;48.336;14.472;2023-09-19T03:57:05;2.47;;;0.90;;
63370;SDS011;72561;48.336;14.472;2023-09-19T04:02:56;3.10;;;1.00;;
63370;SDS011;72561;48.336;14.472;2023-09-19T04:06:17;4.72;;;1.00;;
63370;SDS011;72561;48.336;14.472;2023-09-19T04:12:40;2.80;;;0.93;;
63370;SDS011;72561;48.336;14.472;2023-09-19T04:16:10;3.53;;;1.45;;
63370;SDS011;72561;48.336;14.472;2023-09-19T04:19:31;3.20;;;1.30;;
63370;SDS011;72561;48.336;14.472;2023-09-19T04:22:52;3.05;;;1.13;;
63370;SDS011;72561;48.336;14.472;2023-09-19T04:26:14;4.25;;;1.30;;
63370;SDS011;72561;48.336;14.472;2023-09-19T04:29:39;3.42;;;1.15;;
63370;SDS011;72561;48.336;14.472;2023-09-19T04:33:00;5.47;;;1.50;;
63370;SDS011;72561;48.336;14.472;2023-09-19T04:36:22;5.70;;;1.80;;
63370;SDS011;72561;48.336;14.472;2023-09-19T04:39:43;7.22;;;1.90;;
63370;SDS011;72561;48.336;14.472;2023-09-19T04:43:03;7.68;;;1.50;;
63370;SDS011;72561;48.336;14.472;2023-09-19T04:46:26;5.97;;;1.60;;
63370;SDS011;72561;48.336;14.472;2023-09-19T04:49:47;5.28;;;1.60;;
63370;SDS011;72561;48.336;14.472;2023-09-19T04:53:08;4.85;;;1.45;;
63370;SDS011;72561;48.336;14.472;2023-09-19T04:56:29;4.45;;;1.65;;
63370;SDS011;72561;48.336;14.472;2023-09-19T04:59:50;3.80;;;1.20;;
63370;SDS011;72561;48.336;14.472;2023-09-19T05:03:12;6.68;;;2.05;;
63370;SDS011;72561;48.336;14.472;2023-09-19T05:06:33;4.50;;;1.38;;
63370;SDS011;72561;48.336;14.472;2023-09-19T05:09:54;6.70;;;1.45;;
63370;SDS011;72561;48.336;14.472;2023-09-19T05:13:15;4.32;;;1.30;;
63370;SDS011;72561;48.336;14.472;2023-09-19T05:16:36;3.60;;;1.20;;
63370;SDS011;72561;48.336;14.472;2023-09-19T05:19:59;3.72;;;1.30;;
63370;SDS011;72561;48.336;14.472;2023-09-19T05:23:20;5.45;;;1.40;;
63370;SDS011;72561;48.336;14.472;2023-09-19T05:26:41;3.85;;;1.20;;
63370;SDS011;72561;48.336;14.472;2023-09-19T05:30:02;3.28;;;0.90;;
63370;SDS011;72561;48.336;14.472;2023-09-19T05:33:23;3.22;;;1.10;;
63370;SDS011;72561;48.336;14.472;2023-09-19T05:36:46;2.38;;;0.85;;
63370;SDS011;72561;48.336;14.472;2023-09-19T05:40:10;2.95;;;1.20;;
63370;SDS011;72561;48.336;14.472;2023-09-19T05:43:31;4.10;;;1.03;;
63370;SDS011;72561;48.336;14.472;2023-09-19T05:46:53;4.65;;;1.13;;
63370;SDS011;72561;48.336;14.472;2023-09-19T05:50:14;3.85;;;1.00;;
63370;SDS011;72561;48.336;14.472;2023-09-19T05:53:37;3.70;;;1.08;;
63370;SDS011;72561;48.336;14.472;2023-09-19T05:56:58;3.55;;;0.77;;
63370;SDS011;72561;48.336;14.472;2023-09-19T06:00:19;2.63;;;0.95;;
63370;SDS011;72561;48.336;14.472;2023-09-19T06:03:41;3.00;;;0.73;;
63370;SDS011;72561;48.336;14.472;2023-09-19T06:07:02;2.15;;;0.80;;
63370;SDS011;72561;48.336;14.472;2023-09-19T06:10:25;3.15;;;0.93;;
63370;SDS011;72561;48.336;14.472;2023-09-19T06:13:46;2.33;;;0.80;;
63370;SDS011;72561;48.336;14.472;2023-09-19T06:17:07;2.88;;;0.65;;
63370;SDS011;72561;48.336;14.472;2023-09-19T06:20:28;2.00;;;0.60;;
63370;SDS011;72561;48.336;14.472;2023-09-19T06:23:49;3.17;;;0.90;;
63370;SDS011;72561;48.336;14.472;2023-09-19T06:27:12;2.55;;;0.70;;
63370;SDS011;72561;48.336;14.472;2023-09-19T06:30:33;2.65;;;0.70;;
63370;SDS011;72561;48.336;14.472;2023-09-19T06:33:54;2.28;;;0.70;;
63370;SDS011;72561;48.336;14.472;2023-09-19T06:37:15;2.30;;;0.60;;
63370;SDS011;72561;48.336;14.472;2023-09-19T06:40:36;2.22;;;0.60;;
63370;SDS011;72561;48.336;14.472;2023-09-19T06:43:58;2.20;;;0.75;;
63370;SDS011;72561;48.336;14.472;2023-09-19T06:47:19;2.45;;;0.70;;
63370;SDS011;72561;48.336;14.472;2023-09-19T06:50:40;3.03;;;0.57;;
63370;SDS011;72561;48.336;14.472;2023-09-19T06:54:02;3.17;;;0.50;;
63370;SDS011;72561;48.336;14.472;2023-09-19T06:57:23;1.88;;;0.45;;
63370;SDS011;72561;48.336;14.472;2023-09-19T07:00:45;2.47;;;0.70;;
63370;SDS011;72561;48.336;14.472;2023-09-19T07:04:06;1.98;;;0.40;;
63370;SDS011;72561;48.336;14.472;2023-09-19T07:07:27;2.47;;;0.60;;
63370;SDS011;72561;48.336;14.472;2023-09-19T07:10:48;2.47;;;0.60;;
63370;SDS011;72561;48.336;14.472;2023-09-19T07:14:09;1.85;;;0.40;;
63370;SDS011;72561;48.336;14.472;2023-09-19T07:17:32;1.92;;;0.50;;
63370;SDS011;72561;48.336;14.472;2023-09-19T07:20:56;1.77;;;0.50;;
63370;SDS011;72561;48.336;14.472;2023-09-19T07:24:17;1.85;;;0.50;;
63370;SDS011;72561;48.336;14.472;2023-09-19T07:27:38;2.17;;;0.50;;
63370;SDS011;72561;48.336;14.472;2023-09-19T07:31:01;1.45;;;0.40;;
63370;SDS011;72561;48.336;14.472;2023-09-19T07:34:23;1.92;;;0.43;;
63370;SDS011;72561;48.336;14.472;2023-09-19T07:37:44;1.58;;;0.43;;
63370;SDS011;72561;48.336;14.472;2023-09-19T07:41:05;1.65;;;0.40;;
63370;SDS011;72561;48.336;14.472;2023-09-19T07:44:27;1.63;;;0.40;;
63370;SDS011;72561;48.336;14.472;2023-09-19T07:47:48;1.60;;;0.40;;
63370;SDS011;72561;48.336;14.472;2023-09-19T07:51:11;1.75;;;0.40;;
63370;SDS011;72561;48.336;14.472;2023-09-19T07:54:32;1.65;;;0.57;;
63370;SDS011;72561;48.336;14.472;2023-09-19T07:57:53;1.83;;;0.60;;
63370;SDS011;72561;48.336;14.472;2023-09-19T08:01:14;1.75;;;0.43;;
63370;SDS011;72561;48.336;14.472;2023-09-19T08:04:35;1.45;;;0.38;;
63370;SDS011;72561;48.336;14.472;2023-09-19T08:07:58;1.30;;;0.38;;
63370;SDS011;72561;48.336;14.472;2023-09-19T08:11:19;0.93;;;0.35;;
63370;SDS011;72561;48.336;14.472;2023-09-19T08:14:40;2.05;;;0.50;;
63370;SDS011;72561;48.336;14.472;2023-09-19T08:18:01;1.75;;;0.40;;
63370;SDS011;72561;48.336;14.472;2023-09-19T08:21:22;1.23;;;0.30;;
63370;SDS011;72561;48.336;14.472;2023-09-19T08:24:44;1.23;;;0.40;;
63370;SDS011;72561;48.336;14.472;2023-09-19T08:28:05;0.65;;;0.20;;
63370;SDS011;72561;48.336;14.472;2023-09-19T08:31:26;1.63;;;0.30;;
63370;SDS011;72561;48.336;14.472;2023-09-19T08:34:47;1.08;;;0.28;;
63370;SDS011;72561;48.336;14.472;2023-09-19T08:38:08;1.20;;;0.22;;
63370;SDS011;72561;48.336;14.472;2023-09-19T08:41:31;1.92;;;0.43;;
63370;SDS011;72561;48.336;14.472;2023-09-19T08:44:52;1.15;;;0.25;;
63370;SDS011;72561;48.336;14.472;2023-09-19T08:48:17;1.50;;;0.40;;
63370;SDS011;72561;48.336;14.472;2023-09-19T08:51:45;1.02;;;0.30;;
63370;SDS011;72561;48.336;14.472;2023-09-19T08:55:07;1.63;;;0.30;;
63370;SDS011;72561;48.336;14.472;2023-09-19T08:58:36;1.30;;;0.30;;
63370;SDS011;72561;48.336;14.472;2023-09-19T09:02:09;1.23;;;0.40;;
63370;SDS011;72561;48.336;14.472;2023-09-19T09:05:32;1.75;;;0.38;;
63370;SDS011;72561;48.336;14.472;2023-09-19T09:08:56;0.85;;;0.20;;
63370;SDS011;72561;48.336;14.472;2023-09-19T09:12:17;0.88;;;0.30;;
63370;SDS011;72561;48.336;14.472;2023-09-19T09:15:40;1.00;;;0.22;;
63370;SDS011;72561;48.336;14.472;2023-09-19T09:19:02;0.73;;;0.20;;
63370;SDS011;72561;48.336;14.472;2023-09-19T09:22:23;1.80;;;0.30;;
63370;SDS011;72561;48.336;14.472;2023-09-19T09:25:47;1.15;;;0.30;;
63370;SDS011;72561;48.336;14.472;2023-09-19T09:29:12;1.17;;;0.30;;
63370;SDS011;72561;48.336;14.472;2023-09-19T09:32:34;0.65;;;0.13;;
63370;SDS011;72561;48.336;14.472;2023-09-19T09:35:56;0.80;;;0.20;;
63370;SDS011;72561;48.336;14.472;2023-09-19T09:39:28;1.00;;;0.30;;
63370;SDS011;72561;48.336;14.472;2023-09-19T09:42:50;0.75;;;0.20;;
63370;SDS011;72561;48.336;14.472;2023-09-19T09:46:12;1.60;;;0.30;;
63370;SDS011;72561;48.336;14.472;2023-09-19T09:49:36;1.30;;;0.40;;
63370;SDS011;72561;48.336;14.472;2023-09-19T09:52:57;0.95;;;0.30;;
63370;SDS011;72561;48.336;14.472;2023-09-19T09:56:19;0.60;;;0.20;;
63370;SDS011;72561;48.336;14.472;2023-09-19T09:59:44;0.80;;;0.20;;
63370;SDS011;72561;48.336;14.472;2023-09-19T10:03:09;1.00;;;0.20;;
63370;SDS011;72561;48.336;14.472;2023-09-19T10:06:41;1.38;;;0.32;;
63370;SDS011;72561;48.336;14.472;2023-09-19T10:10:03;0.65;;;0.20;;
63370;SDS011;72561;48.336;14.472;2023-09-19T10:13:25;0.82;;;0.20;;
63370;SDS011;72561;48.336;14.472;2023-09-19T10:16:50;0.63;;;0.20;;
63370;SDS011;72561;48.336;14.472;2023-09-19T10:20:15;1.10;;;0.30;;
63370;SDS011;72561;48.336;14.472;2023-09-19T10:23:38;0.68;;;0.10;;
63370;SDS011;72561;48.336;14.472;2023-09-19T10:30:24;0.85;;;0.25;;
63370;SDS011;72561;48.336;14.472;2023-09-19T10:33:47;1.33;;;0.30;;
63370;SDS011;72561;48.336;14.472;2023-09-19T10:37:10;1.17;;;0.30;;
63370;SDS011;72561;48.336;14.472;2023-09-19T10:40:35;0.80;;;0.17;;
63370;SDS011;72561;48.336;14.472;2023-09-19T10:43:57;1.27;;;0.32;;
63370;SDS011;72561;48.336;14.472;2023-09-19T10:47:19;1.88;;;0.30;;
63370;SDS011;72561;48.336;14.472;2023-09-19T10:50:43;0.75;;;0.20;;
63370;SDS011;72561;48.336;14.472;2023-09-19T10:54:10;0.68;;;0.20;;
63370;SDS011;72561;48.336;14.472;2023-09-19T10:57:34;0.50;;;0.17;;
63370;SDS011;72561;48.336;14.472;2023-09-19T11:00:56;0.40;;;0.10;;
63370;SDS011;72561;48.336;14.472;2023-09-19T11:04:25;0.90;;;0.22;;
63370;SDS011;72561;48.336;14.472;2023-09-19T11:07:57;0.70;;;0.20;;
63370;SDS011;72561;48.336;14.472;2023-09-19T11:15:06;1.08;;;0.30;;
63370;SDS011;72561;48.336;14.472;2023-09-19T11:22:14;1.00;;;0.25;;
63370;SDS011;72561;48.336;14.472;2023-09-19T11:25:41;0.68;;;0.20;;
63370;SDS011;72561;48.336;14.472;2023-09-19T11:36:38;1.33;;;0.30;;
63370;SDS011;72561;48.336;14.472;2023-09-19T11:40:05;1.05;;;0.20;;
63370;SDS011;72561;48.336;14.472;2023-09-19T11:43:27;0.95;;;0.20;;
63370;SDS011;72561;48.336;14.472;2023-09-19T11:46:52;0.32;;;0.10;;
63370;SDS011;72561;48.336;14.472;2023-09-19T11:50:18;0.40;;;0.10;;
63370;SDS011;72561;48.336;14.472;2023-09-19T11:53:40;1.10;;;0.30;;
63370;SDS011;72561;48.336;14.472;2023-09-19T11:57:04;1.20;;;0.22;;
63370;SDS011;72561;48.336;14.472;2023-09-19T12:00:26;0.63;;;0.20;;
63370;SDS011;72561;48.336;14.472;2023-09-19T12:03:47;0.75;;;0.10;;
63370;SDS011;72561;48.336;14.472;2023-09-19T12:07:17;0.98;;;0.20;;
63370;SDS011;72561;48.336;14.472;2023-09-19T12:10:49;0.77;;;0.17;;
63370;SDS011;72561;48.336;14.472;2023-09-19T12:14:11;0.60;;;0.10;;
63370;SDS011;72561;48.336;14.472;2023-09-19T12:17:42;0.57;;;0.10;;
63370;SDS011;72561;48.336;14.472;2023-09-19T12:21:03;0.98;;;0.20;;
63370;SDS011;72561;48.336;14.472;2023-09-19T12:24:26;0.55;;;0.10;;
63370;SDS011;72561;48.336;14.472;2023-09-19T12:27:47;0.52;;;0.20;;
63370;SDS011;72561;48.336;14.472;2023-09-19T12:31:09;0.60;;;0.10;;
63370;SDS011;72561;48.336;14.472;2023-09-19T12:34:31;0.65;;;0.10;;
63370;SDS011;72561;48.336;14.472;2023-09-19T12:37:53;0.82;;;0.30;;
63370;SDS011;72561;48.336;14.472;2023-09-19T12:41:16;1.52;;;0.30;;
63370;SDS011;72561;48.336;14.472;2023-09-19T12:44:37;1.13;;;0.22;;
63370;SDS011;72561;48.336;14.472;2023-09-19T12:48:20;1.30;;;0.32;;
63370;SDS011;72561;48.336;14.472;2023-09-19T12:51:42;1.95;;;0.32;;
63370;SDS011;72561;48.336;14.472;2023-09-19T12:55:04;2.42;;;0.40;;
63370;SDS011;72561;48.336;14.472;2023-09-19T12:58:27;2.10;;;0.38;;
63370;SDS011;72561;48.336;14.472;2023-09-19T13:01:49;1.10;;;0.30;;
63370;SDS011;72561;48.336;14.472;2023-09-19T13:09:18;4.80;;;0.80;;
63370;SDS011;72561;48.336;14.472;2023-09-19T13:12:41;1.55;;;0.43;;
63370;SDS011;72561;48.336;14.472;2023-09-19T13:16:05;2.20;;;0.57;;
63370;SDS011;72561;48.336;14.472;2023-09-19T13:19:41;3.42;;;1.02;;
63370;SDS011;72561;48.336;14.472;2023-09-19T13:23:04;5.70;;;1.17;;
63370;SDS011;72561;48.336;14.472;2023-09-19T13:26:25;1.85;;;0.75;;
63370;SDS011;72561;48.336;14.472;2023-09-19T13:29:46;2.70;;;0.70;;
63370;SDS011;72561;48.336;14.472;2023-09-19T13:33:09;2.35;;;0.68;;
63370;SDS011;72561;48.336;14.472;2023-09-19T13:36:31;2.03;;;0.65;;
63370;SDS011;72561;48.336;14.472;2023-09-19T13:39:52;3.60;;;0.65;;
63370;SDS011;72561;48.336;14.472;2023-09-19T13:43:13;2.33;;;0.60;;
63370;SDS011;72561;48.336;14.472;2023-09-19T13:46:34;1.70;;;0.43;;
63370;SDS011;72561;48.336;14.472;2023-09-19T13:49:57;2.20;;;0.43;;
63370;SDS011;72561;48.336;14.472;2023-09-19T13:53:18;2.17;;;0.60;;
63370;SDS011;72561;48.336;14.472;2023-09-19T13:56:39;1.52;;;0.32;;
63370;SDS011;72561;48.336;14.472;2023-09-19T14:00:00;1.67;;;0.40;;
63370;SDS011;72561;48.336;14.472;2023-09-19T14:03:21;2.10;;;0.50;;
63370;SDS011;72561;48.336;14.472;2023-09-19T14:06:43;3.30;;;0.63;;
63370;SDS011;72561;48.336;14.472;2023-09-19T14:10:05;2.80;;;0.73;;
63370;SDS011;72561;48.336;14.472;2023-09-19T14:13:26;2.65;;;0.70;;
63370;SDS011;72561;48.336;14.472;2023-09-19T14:16:47;2.38;;;0.60;;
63370;SDS011;72561;48.336;14.472;2023-09-19T14:20:08;5.25;;;1.15;;
63370;SDS011;72561;48.336;14.472;2023-09-19T14:26:10;6.32;;;2.42;;
63370;SDS011;72561;48.336;14.472;2023-09-19T14:29:42;9.80;;;5.50;;
63370;SDS011;72561;48.336;14.472;2023-09-19T14:33:04;9.95;;;5.40;;
63370;SDS011;72561;48.336;14.472;2023-09-19T14:36:25;10.70;;;5.68;;
63370;SDS011;72561;48.336;14.472;2023-09-19T14:39:46;9.35;;;5.57;;
63370;SDS011;72561;48.336;14.472;2023-09-19T14:43:07;9.65;;;5.75;;
63370;SDS011;72561;48.336;14.472;2023-09-19T14:46:56;8.23;;;4.70;;
63370;SDS011;72561;48.336;14.472;2023-09-19T14:50:17;8.77;;;4.78;;
63370;SDS011;72561;48.336;14.472;2023-09-19T14:53:38;7.65;;;4.47;;
63370;SDS011;72561;48.336;14.472;2023-09-19T14:56:59;7.40;;;4.03;;
63370;SDS011;72561;48.336;14.472;2023-09-19T15:00:21;8.15;;;3.70;;
63370;SDS011;72561;48.336;14.472;2023-09-19T15:03:43;8.60;;;3.70;;
63370;SDS011;72561;48.336;14.472;2023-09-19T15:07:04;6.03;;;2.95;;
63370;SDS011;72561;48.336;14.472;2023-09-19T15:10:25;6.40;;;3.05;;
63370;SDS011;72561;48.336;14.472;2023-09-19T15:13:46;7.97;;;3.20;;
63370;SDS011;72561;48.336;14.472;2023-09-19T15:17:10;6.32;;;3.17;;
63370;SDS011;72561;48.336;14.472;2023-09-19T15:20:32;5.20;;;2.67;;
63370;SDS011;72561;48.336;14.472;2023-09-19T15:23:53;5.90;;;2.28;;
63370;SDS011;72561;48.336;14.472;2023-09-19T15:27:14;5.38;;;2.67;;
63370;SDS011;72561;48.336;14.472;2023-09-19T15:30:36;5.63;;;2.90;;
63370;SDS011;72561;48.336;14.472;2023-09-19T15:33:58;4.90;;;2.10;;
63370;SDS011;72561;48.336;14.472;2023-09-19T15:37:20;5.22;;;2.30;;
63370;SDS011;72561;48.336;14.472;2023-09-19T15:40:45;5.82;;;2.25;;
63370;SDS011;72561;48.336;14.472;2023-09-19T15:44:11;5.75;;;2.38;;
63370;SDS011;72561;48.336;14.472;2023-09-19T15:47:34;4.53;;;1.92;;
63370;SDS011;72561;48.336;14.472;2023-09-19T15:50:55;5.07;;;1.73;;
63370;SDS011;72561;48.336;14.472;2023-09-19T15:54:18;6.88;;;2.00;;
63370;SDS011;72561;48.336;14.472;2023-09-19T15:57:39;4.13;;;1.60;;
63370;SDS011;72561;48.336;14.472;2023-09-19T16:01:04;6.45;;;1.70;;
63370;SDS011;72561;48.336;14.472;2023-09-19T16:04:25;5.72;;;1.80;;
63370;SDS011;72561;48.336;14.472;2023-09-19T16:07:47;4.65;;;1.60;;
63370;SDS011;72561;48.336;14.472;2023-09-19T16:11:10;5.93;;;1.65;;
63370;SDS011;72561;48.336;14.472;2023-09-19T16:17:15;5.47;;;1.50;;
63370;SDS011;72561;48.336;14.472;2023-09-19T16:20:36;4.28;;;1.33;;
63370;SDS011;72561;48.336;14.472;2023-09-19T16:23:57;4.57;;;1.40;;
63370;SDS011;72561;48.336;14.472;2023-09-19T16:27:19;4.28;;;1.42;;
63370;SDS011;72561;48.336;14.472;2023-09-19T16:30:40;3.45;;;1.20;;
63370;SDS011;72561;48.336;14.472;2023-09-19T16:34:02;4.75;;;1.63;;
63370;SDS011;72561;48.336;14.472;2023-09-19T16:37:24;4.10;;;1.33;;
63370;SDS011;72561;48.336;14.472;2023-09-19T16:40:50;4.18;;;1.42;;
63370;SDS011;72561;48.336;14.472;2023-09-19T16:44:12;4.57;;;1.42;;
63370;SDS011;72561;48.336;14.472;2023-09-19T16:47:34;4.97;;;1.42;;
63370;SDS011;72561;48.336;14.472;2023-09-19T16:50:58;3.10;;;1.30;;
63370;SDS011;72561;48.336;14.472;2023-09-19T16:54:21;5.13;;;1.55;;
63370;SDS011;72561;48.336;14.472;2023-09-19T16:57:42;4.22;;;1.40;;
63370;SDS011;72561;48.336;14.472;2023-09-19T17:01:03;6.25;;;1.92;;
63370;SDS011;72561;48.336;14.472;2023-09-19T17:04:26;3.90;;;1.55;;
63370;SDS011;72561;48.336;14.472;2023-09-19T17:07:49;3.95;;;1.70;;
63370;SDS011;72561;48.336;14.472;2023-09-19T17:11:10;3.53;;;1.42;;
63370;SDS011;72561;48.336;14.472;2023-09-19T17:14:33;4.38;;;1.63;;
63370;SDS011;72561;48.336;14.472;2023-09-19T17:17:54;4.15;;;1.45;;
63370;SDS011;72561;48.336;14.472;2023-09-19T17:21:15;4.45;;;1.30;;
63370;SDS011;72561;48.336;14.472;2023-09-19T17:24:38;3.60;;;1.30;;
63370;SDS011;72561;48.336;14.472;2023-09-19T17:27:59;4.75;;;1.35;;
63370;SDS011;72561;48.336;14.472;2023-09-19T17:31:20;2.47;;;0.90;;
63370;SDS011;72561;48.336;14.472;2023-09-19T17:34:46;3.40;;;1.10;;
63370;SDS011;72561;48.336;14.472;2023-09-19T17:38:07;8.50;;;1.55;;
63370;SDS011;72561;48.336;14.472;2023-09-19T17:41:29;6.80;;;1.92;;
63370;SDS011;72561;48.336;14.472;2023-09-19T17:44:51;7.70;;;1.75;;
63370;SDS011;72561;48.336;14.472;2023-09-19T17:48:12;6.50;;;2.33;;
63370;SDS011;72561;48.336;14.472;2023-09-19T17:51:33;6.35;;;2.03;;
63370;SDS011;72561;48.336;14.472;2023-09-19T17:54:54;6.70;;;1.98;;
63370;SDS011;72561;48.336;14.472;2023-09-19T17:58:16;7.70;;;2.05;;
63370;SDS011;72561;48.336;14.472;2023-09-19T18:01:37;6.72;;;2.08;;
63370;SDS011;72561;48.336;14.472;2023-09-19T18:04:58;4.38;;;1.70;;
63370;SDS011;72561;48.336;14.472;2023-09-19T18:08:20;7.65;;;2.08;;
63370;SDS011;72561;48.336;14.472;2023-09-19T18:14:26;6.20;;;1.50;;
63370;SDS011;72561;48.336;14.472;2023-09-19T18:17:47;4.53;;;1.15;;
63370;SDS011;72561;48.336;14.472;2023-09-19T18:21:25;5.32;;;1.40;;
63370;SDS011;72561;48.336;14.472;2023-09-19T18:24:46;6.40;;;1.85;;
63370;SDS011;72561;48.336;14.472;2023-09-19T18:28:07;7.72;;;1.83;;
63370;SDS011;72561;48.336;14.472;2023-09-19T18:31:28;4.25;;;1.17;;
63370;SDS011;72561;48.336;14.472;2023-09-19T18:34:49;5.25;;;1.50;;
63370;SDS011;72561;48.336;14.472;2023-09-19T18:39:13;4.72;;;1.52;;
63370;SDS011;72561;48.336;14.472;2023-09-19T18:42:34;5.22;;;1.42;;
63370;SDS011;72561;48.336;14.472;2023-09-19T18:45:55;7.57;;;1.48;;
63370;SDS011;72561;48.336;14.472;2023-09-19T18:49:16;4.55;;;1.20;;
63370;SDS011;72561;48.336;14.472;2023-09-19T18:52:37;4.57;;;1.30;;
63370;SDS011;72561;48.336;14.472;2023-09-19T18:56:03;7.57;;;1.60;;
63370;SDS011;72561;48.336;14.472;2023-09-19T18:59:25;5.80;;;1.40;;
63370;SDS011;72561;48.336;14.472;2023-09-19T19:03:43;4.07;;;1.10;;
63370;SDS011;72561;48.336;14.472;2023-09-19T19:07:04;3.97;;;1.30;;
63370;SDS011;72561;48.336;14.472;2023-09-19T19:10:25;6.45;;;0.93;;
63370;SDS011;72561;48.336;14.472;2023-09-19T19:13:46;3.67;;;1.20;;
63370;SDS011;72561;48.336;14.472;2023-09-19T19:17:13;4.20;;;1.20;;
63370;SDS011;72561;48.336;14.472;2023-09-19T19:20:45;5.25;;;1.25;;
63370;SDS011;72561;48.336;14.472;2023-09-19T19:27:22;3.65;;;1.23;;
63370;SDS011;72561;48.336;14.472;2023-09-19T19:30:43;3.80;;;1.05;;
63370;SDS011;72561;48.336;14.472;2023-09-19T19:34:05;3.38;;;0.77;;
63370;SDS011;72561;48.336;14.472;2023-09-19T19:40:31;3.75;;;0.93;;
63370;SDS011;72561;48.336;14.472;2023-09-19T19:43:52;3.13;;;0.57;;
63370;SDS011;72561;48.336;14.472;2023-09-19T19:50:30;3.45;;;1.00;;
63370;SDS011;72561;48.336;14.472;2023-09-19T19:53:57;4.70;;;0.90;;
63370;SDS011;72561;48.336;14.472;2023-09-19T19:57:20;2.55;;;0.70;;
63370;SDS011;72561;48.336;14.472;2023-09-19T20:00:41;5.03;;;0.90;;
63370;SDS011;72561;48.336;14.472;2023-09-19T20:04:03;3.42;;;0.93;;
63370;SDS011;72561;48.336;14.472;2023-09-19T20:07:26;3.47;;;0.70;;
63370;SDS011;72561;48.336;14.472;2023-09-19T20:13:28;3.03;;;0.80;;
63370;SDS011;72561;48.336;14.472;2023-09-19T20:16:49;2.38;;;0.63;;
63370;SDS011;72561;48.336;14.472;2023-09-19T20:20:10;3.35;;;0.65;;
63370;SDS011;72561;48.336;14.472;2023-09-19T20:23:32;3.40;;;0.70;;
63370;SDS011;72561;48.336;14.472;2023-09-19T20:26:53;2.50;;;0.63;;
63370;SDS011;72561;48.336;14.472;2023-09-19T20:30:15;2.22;;;0.57;;
63370;SDS011;72561;48.336;14.472;2023-09-19T20:33:37;1.33;;;0.38;;
63370;SDS011;72561;48.336;14.472;2023-09-19T20:36:58;2.42;;;0.57;;
63370;SDS011;72561;48.336;14.472;2023-09-19T20:40:19;2.22;;;0.60;;
63370;SDS011;72561;48.336;14.472;2023-09-19T20:43:40;2.33;;;0.50;;
63370;SDS011;72561;48.336;14.472;2023-09-19T20:49:29;2.22;;;0.50;;
63370;SDS011;72561;48.336;14.472;2023-09-19T20:52:50;1.55;;;0.30;;
63370;SDS011;72561;48.336;14.472;2023-09-19T20:56:11;1.73;;;0.55;;
63370;SDS011;72561;48.336;14.472;2023-09-19T20:59:32;2.45;;;0.43;;
63370;SDS011;72561;48.336;14.472;2023-09-19T21:02:54;1.48;;;0.43;;